createdAt,value
2018-12-14T00:00:44.662Z,76.09
2018-12-14T00:01:44.600Z,76.30
2018-12-14T00:02:45.026Z,76.40
2018-12-14T00:03:44.623Z,76.26
2018-12-14T00:04:44.608Z,76.06
2018-12-14T00:05:44.562Z,75.85
2018-12-14T00:06:44.636Z,75.95
2018-12-14T00:07:45.349Z,75.85
2018-12-14T00:08:44.534Z,73.97
2018-12-14T00:09:44.592Z,74.70
2018-12-14T00:10:44.506Z,74.74
2018-12-14T00:11:45.636Z,74.49
2018-12-14T00:12:44.477Z,73.80
2018-12-14T00:13:44.601Z,73.56
2018-12-14T00:14:44.491Z,72.34
2018-12-14T00:15:44.462Z,71.72
2018-12-14T00:16:44.438Z,72.45
2018-12-14T00:17:44.433Z,72.45
2018-12-14T00:18:44.426Z,72.03
2018-12-14T00:19:44.535Z,72.97
2018-12-14T00:20:44.401Z,71.61
2018-12-14T00:21:44.385Z,71.96
2018-12-14T00:22:44.382Z,72.38
2018-12-14T00:23:44.370Z,72.93
2018-12-14T00:24:44.349Z,73.03
2018-12-14T00:25:44.431Z,73.76
2018-12-14T00:26:44.341Z,74.46
2018-12-14T00:27:44.327Z,74.07
2018-12-14T00:28:44.314Z,73.83
2018-12-14T00:29:44.307Z,73.10
2018-12-14T00:30:44.292Z,72.58
2018-12-14T00:31:44.416Z,72.93
2018-12-14T00:32:44.769Z,72.89
2018-12-14T00:33:44.263Z,73.21
2018-12-14T00:34:44.253Z,72.69
2018-12-14T00:35:44.244Z,73.21
2018-12-14T00:36:44.228Z,73.00
2018-12-14T00:37:44.322Z,73.32
2018-12-14T00:38:44.211Z,72.48
2018-12-14T00:39:44.202Z,72.48
2018-12-14T00:40:44.188Z,73.32
2018-12-14T00:41:44.170Z,73.10
2018-12-14T00:42:44.164Z,72.69
2018-12-14T00:43:44.241Z,73.42
2018-12-14T00:44:44.730Z,73.94
2018-12-14T00:45:44.143Z,73.32
2018-12-14T00:46:44.137Z,73.52
2018-12-14T00:47:44.108Z,73.52
2018-12-14T00:48:44.143Z,73.83
2018-12-14T00:49:44.178Z,73.49
2018-12-14T00:50:44.088Z,73.73
2018-12-14T00:51:44.069Z,73.69
2018-12-14T00:52:44.061Z,72.58
2018-12-14T00:53:44.631Z,72.89
2018-12-14T00:54:44.725Z,72.79
2018-12-14T00:55:44.175Z,73.10
2018-12-14T00:56:44.014Z,73.21
2018-12-14T00:57:44.133Z,73.10
2018-12-14T00:58:43.993Z,74.25
2018-12-14T00:59:43.987Z,73.73
2018-12-14T01:00:43.963Z,73.63
2018-12-14T01:01:43.960Z,73.42
2018-12-14T01:02:43.957Z,73.00
2018-12-14T01:03:44.096Z,72.76
2018-12-14T01:04:44.022Z,72.38
2018-12-14T01:05:43.975Z,72.89
2018-12-14T01:06:43.904Z,73.00
2018-12-14T01:07:44.469Z,73.10
2018-12-14T01:08:43.924Z,73.42
2018-12-14T01:09:43.866Z,72.89
2018-12-14T01:10:44.060Z,73.21
2018-12-14T01:11:44.006Z,73.21
2018-12-14T01:12:43.981Z,73.07
2018-12-14T01:13:43.898Z,73.21
2018-12-14T01:14:43.832Z,73.42
2018-12-14T01:15:43.906Z,74.04
2018-12-14T01:16:43.835Z,74.15
2018-12-14T01:17:43.778Z,73.83
2018-12-14T01:18:44.198Z,74.35
2018-12-14T01:19:43.763Z,74.35
2018-12-14T01:20:43.760Z,74.04
2018-12-14T01:21:43.743Z,74.15
2018-12-14T01:22:43.732Z,74.15
2018-12-14T01:23:44.227Z,74.46
2018-12-14T01:24:44.031Z,74.35
2018-12-14T01:25:43.705Z,74.77
2018-12-14T01:26:43.687Z,74.04
2018-12-14T01:27:43.695Z,74.66
2018-12-14T01:28:43.687Z,73.94
2018-12-14T01:29:43.760Z,74.04
2018-12-14T01:30:43.646Z,74.04
2018-12-14T01:31:43.636Z,74.66
2018-12-14T01:32:43.615Z,74.04
2018-12-14T01:33:43.619Z,74.04
2018-12-14T01:34:43.681Z,74.04
2018-12-14T01:35:43.608Z,73.00
2018-12-14T01:36:43.584Z,74.18
2018-12-14T01:37:43.586Z,74.56
2018-12-14T01:38:43.588Z,74.80
2018-12-14T01:39:43.549Z,74.56
2018-12-14T01:40:43.730Z,74.04
2018-12-14T01:41:43.653Z,74.18
2018-12-14T01:42:43.515Z,74.49
2018-12-14T01:43:43.504Z,75.12
2018-12-14T01:44:43.626Z,74.49
2018-12-14T01:45:43.477Z,74.49
2018-12-14T01:46:43.464Z,74.07
2018-12-14T01:47:43.458Z,74.07
2018-12-14T01:48:43.474Z,74.60
2018-12-14T01:49:43.438Z,75.22
2018-12-14T01:50:43.559Z,74.46
2018-12-14T01:51:43.414Z,74.15
2018-12-14T01:52:43.403Z,74.15
2018-12-14T01:53:43.402Z,74.07
2018-12-14T01:54:43.451Z,73.94
2018-12-14T01:55:43.374Z,74.25
2018-12-14T01:56:43.537Z,74.70
2018-12-14T01:57:43.350Z,73.76
2018-12-14T01:58:43.374Z,73.97
2018-12-14T01:59:43.358Z,73.86
2018-12-14T02:00:43.326Z,74.29
2018-12-14T02:01:43.310Z,74.07
2018-12-14T02:02:43.363Z,74.66
2018-12-14T02:03:43.306Z,74.49
2018-12-14T02:04:43.446Z,74.39
2018-12-14T02:05:43.270Z,73.94
2018-12-14T02:06:43.258Z,73.94
2018-12-14T02:07:43.246Z,73.94
2018-12-14T02:08:43.236Z,73.86
2018-12-14T02:09:43.221Z,73.03
2018-12-14T02:10:43.331Z,73.14
2018-12-14T02:11:43.477Z,73.86
2018-12-14T02:12:43.187Z,73.14
2018-12-14T02:13:43.198Z,73.97
2018-12-14T02:14:43.451Z,73.86
2018-12-14T02:15:43.332Z,73.76
2018-12-14T02:16:43.677Z,73.14
2018-12-14T02:17:43.257Z,73.45
2018-12-14T02:18:43.222Z,73.14
2018-12-14T02:19:43.278Z,73.66
2018-12-14T02:20:43.265Z,74.01
2018-12-14T02:21:43.147Z,74.29
2018-12-14T02:22:43.401Z,73.66
2018-12-14T02:23:43.120Z,74.01
2018-12-14T02:24:43.195Z,74.32
2018-12-14T02:25:43.129Z,74.32
2018-12-14T02:26:43.656Z,74.52
2018-12-14T02:27:43.042Z,75.05
2018-12-14T02:28:43.080Z,76.09
2018-12-14T02:29:43.002Z,75.43
2018-12-14T02:30:43.117Z,75.78
2018-12-14T02:31:42.984Z,75.01
2018-12-14T02:32:43.081Z,75.22
2018-12-14T02:33:42.968Z,75.12
2018-12-14T02:34:42.965Z,74.91
2018-12-14T02:35:42.937Z,74.49
2018-12-14T02:36:42.960Z,74.39
2018-12-14T02:37:42.928Z,74.29
2018-12-14T02:38:43.037Z,74.07
2018-12-14T02:39:42.902Z,73.55
2018-12-14T02:40:42.885Z,73.86
2018-12-14T02:41:42.880Z,73.45
2018-12-14T02:42:42.879Z,73.76
2018-12-14T02:43:42.873Z,74.60
2018-12-14T02:44:42.915Z,73.97
2018-12-14T02:45:42.830Z,73.66
2018-12-14T02:46:42.822Z,73.86
2018-12-14T02:47:42.820Z,74.49
2018-12-14T02:48:43.438Z,74.42
2018-12-14T02:49:42.796Z,74.18
2018-12-14T02:50:42.782Z,73.97
2018-12-14T02:51:42.766Z,74.74
2018-12-14T02:52:42.784Z,74.29
2018-12-14T02:53:42.747Z,74.49
2018-12-14T02:54:42.858Z,74.07
2018-12-14T02:55:42.906Z,73.80
2018-12-14T02:56:42.782Z,73.55
2018-12-14T02:57:42.709Z,73.45
2018-12-14T02:58:42.689Z,73.17
2018-12-14T02:59:42.687Z,73.80
2018-12-14T03:00:42.710Z,73.07
2018-12-14T03:01:43.433Z,73.69
2018-12-14T03:02:42.649Z,73.27
2018-12-14T03:03:42.651Z,73.41
2018-12-14T03:04:42.631Z,73.52
2018-12-14T03:05:42.707Z,73.80
2018-12-14T03:06:42.618Z,74.01
2018-12-14T03:07:42.616Z,73.38
2018-12-14T03:08:42.598Z,73.80
2018-12-14T03:09:42.580Z,73.38
2018-12-14T03:10:42.569Z,73.27
2018-12-14T03:11:42.651Z,73.27
2018-12-14T03:12:42.565Z,73.07
2018-12-14T03:13:42.551Z,72.65
2018-12-14T03:14:42.521Z,72.89
2018-12-14T03:15:42.502Z,72.92
2018-12-14T03:16:42.504Z,73.76
2018-12-14T03:17:43.286Z,74.87
2018-12-14T03:18:42.494Z,73.72
2018-12-14T03:19:42.460Z,73.62
2018-12-14T03:20:42.530Z,73.66
2018-12-14T03:21:42.768Z,73.86
2018-12-14T03:22:42.438Z,74.15
2018-12-14T03:23:42.608Z,73.76
2018-12-14T03:24:42.473Z,73.76
2018-12-14T03:25:42.866Z,74.15
2018-12-14T03:26:42.395Z,74.28
2018-12-14T03:27:42.512Z,74.80
2018-12-14T03:28:42.542Z,75.22
2018-12-14T03:29:42.463Z,75.22
2018-12-14T03:30:42.405Z,74.49
2018-12-14T03:31:42.334Z,74.46
2018-12-14T03:32:42.481Z,74.35
2018-12-14T03:33:42.400Z,74.46
2018-12-14T03:34:42.393Z,73.93
2018-12-14T03:35:42.386Z,74.56
2018-12-14T03:36:42.290Z,74.25
2018-12-14T03:37:42.267Z,74.35
2018-12-14T03:38:42.327Z,74.04
2018-12-14T03:39:42.247Z,73.41
2018-12-14T03:40:42.408Z,73.52
2018-12-14T03:41:42.227Z,74.04
2018-12-14T03:42:42.220Z,74.35
2018-12-14T03:43:42.226Z,74.25
2018-12-14T03:44:42.194Z,74.25
2018-12-14T03:45:42.186Z,74.04
2018-12-14T03:46:42.272Z,74.21
2018-12-14T03:47:42.267Z,74.42
2018-12-14T03:48:42.151Z,74.01
2018-12-14T03:49:42.137Z,73.27
2018-12-14T03:50:42.143Z,73.00
2018-12-14T03:51:42.175Z,73.10
2018-12-14T03:52:42.099Z,73.72
2018-12-14T03:53:42.265Z,74.35
2018-12-14T03:54:42.177Z,74.56
2018-12-14T03:55:42.081Z,74.25
2018-12-14T03:56:42.084Z,74.77
2018-12-14T03:57:42.063Z,74.56
2018-12-14T03:58:42.059Z,74.46
2018-12-14T03:59:42.043Z,74.35
2018-12-14T04:00:42.174Z,74.11
2018-12-14T04:01:42.009Z,74.32
2018-12-14T04:02:42.020Z,74.11
2018-12-14T04:03:41.998Z,74.52
2018-12-14T04:04:42.106Z,73.80
2018-12-14T04:05:41.981Z,73.69
2018-12-14T04:06:42.175Z,74.01
2018-12-14T04:07:41.951Z,72.89
2018-12-14T04:08:41.939Z,73.41
2018-12-14T04:09:41.925Z,73.83
2018-12-14T04:10:41.926Z,73.10
2018-12-14T04:11:42.038Z,73.41
2018-12-14T04:12:42.210Z,73.52
2018-12-14T04:13:42.008Z,73.10
2018-12-14T04:14:42.009Z,72.89
2018-12-14T04:15:41.898Z,73.13
2018-12-14T04:16:41.862Z,73.52
2018-12-14T04:17:41.851Z,73.76
2018-12-14T04:18:41.819Z,73.86
2018-12-14T04:19:41.827Z,73.93
2018-12-14T04:20:41.996Z,74.07
2018-12-14T04:21:41.795Z,74.07
2018-12-14T04:22:41.786Z,74.70
2018-12-14T04:23:41.807Z,74.52
2018-12-14T04:24:41.756Z,75.95
2018-12-14T04:25:41.753Z,75.01
2018-12-14T04:26:41.863Z,74.18
2018-12-14T04:27:41.726Z,74.52
2018-12-14T04:28:41.714Z,75.15
2018-12-14T04:29:41.748Z,75.78
2018-12-14T04:30:41.704Z,75.74
2018-12-14T04:31:42.898Z,75.63
2018-12-14T04:32:41.671Z,75.53
2018-12-14T04:33:41.668Z,75.63
2018-12-14T04:34:42.034Z,75.85
2018-12-14T04:35:41.650Z,75.12
2018-12-14T04:36:41.985Z,74.28
2018-12-14T04:37:41.713Z,74.49
2018-12-14T04:38:41.687Z,73.97
2018-12-14T04:39:41.719Z,74.15
2018-12-14T04:40:42.040Z,74.04
2018-12-14T04:41:41.695Z,74.15
2018-12-14T04:42:48.690Z,74.66
2018-12-14T04:43:42.678Z,73.41
2018-12-14T04:44:41.628Z,74.25
2018-12-14T04:45:41.585Z,74.46
2018-12-14T04:46:41.622Z,74.35
2018-12-14T04:47:41.609Z,74.15
2018-12-14T04:48:41.797Z,73.52
2018-12-14T04:49:41.514Z,73.62
2018-12-14T04:50:41.479Z,73.21
2018-12-14T04:51:41.488Z,73.72
2018-12-14T04:52:42.564Z,73.27
2018-12-14T04:53:41.493Z,73.69
2018-12-14T04:54:41.509Z,74.46
2018-12-14T04:55:41.619Z,73.93
2018-12-14T04:56:41.645Z,74.46
2018-12-14T04:57:41.488Z,74.35
2018-12-14T04:58:41.400Z,74.15
2018-12-14T04:59:41.425Z,74.35
2018-12-14T05:00:41.513Z,75.12
2018-12-14T05:01:41.396Z,75.29
2018-12-14T05:02:41.422Z,75.29
2018-12-14T05:03:41.408Z,74.46
2018-12-14T05:04:41.399Z,75.40
2018-12-14T05:05:41.392Z,75.50
2018-12-14T05:06:41.493Z,75.29
2018-12-14T05:07:41.606Z,75.60
2018-12-14T05:08:41.424Z,75.08
2018-12-14T05:09:41.460Z,75.74
2018-12-14T05:10:41.432Z,75.60
2018-12-14T05:11:41.418Z,76.16
2018-12-14T05:12:41.448Z,76.16
2018-12-14T05:13:42.290Z,76.16
2018-12-14T05:14:41.753Z,75.92
2018-12-14T05:15:41.441Z,76.37
2018-12-14T05:16:41.469Z,76.06
2018-12-14T05:17:41.422Z,76.47
2018-12-14T05:18:41.486Z,76.23
2018-12-14T05:19:41.602Z,75.92
2018-12-14T05:20:41.432Z,76.23
2018-12-14T05:21:41.404Z,76.02
2018-12-14T05:22:41.440Z,76.43
2018-12-14T05:23:41.400Z,76.23
2018-12-14T05:24:41.389Z,76.43
2018-12-14T05:25:41.572Z,75.81
2018-12-14T05:26:41.417Z,76.30
2018-12-14T05:27:41.439Z,75.92
2018-12-14T05:28:41.396Z,76.33
2018-12-14T05:29:41.445Z,76.30
2018-12-14T05:30:41.620Z,76.20
2018-12-14T05:31:41.408Z,76.20
2018-12-14T05:32:41.588Z,75.67
2018-12-14T05:33:41.363Z,76.40
2018-12-14T05:34:41.476Z,76.51
2018-12-14T05:35:41.172Z,76.37
2018-12-14T05:36:41.500Z,76.26
2018-12-14T05:37:41.597Z,75.67
2018-12-14T05:38:40.984Z,75.46
2018-12-14T05:39:40.940Z,75.67
2018-12-14T05:40:41.487Z,75.46
2018-12-14T05:41:40.925Z,75.88
2018-12-14T05:42:41.394Z,75.78
2018-12-14T05:43:40.921Z,75.78
2018-12-14T05:44:40.915Z,75.57
2018-12-14T05:45:40.878Z,75.78
2018-12-14T05:46:41.531Z,75.64
2018-12-14T05:47:40.880Z,76.16
2018-12-14T05:48:40.946Z,76.09
2018-12-14T05:49:40.865Z,75.46
2018-12-14T05:50:40.843Z,75.78
2018-12-14T05:51:40.911Z,75.88
2018-12-14T05:52:41.952Z,76.30
2018-12-14T05:53:40.809Z,76.33
2018-12-14T05:54:40.784Z,76.09
2018-12-14T05:55:40.796Z,76.30
2018-12-14T05:56:40.897Z,76.65
2018-12-14T05:57:41.566Z,76.54
2018-12-14T05:58:40.858Z,76.86
2018-12-14T05:59:40.869Z,76.61
2018-12-14T06:00:40.726Z,76.61
2018-12-14T06:01:40.733Z,76.65
2018-12-14T06:02:40.728Z,76.61
2018-12-14T06:03:40.961Z,76.54
2018-12-14T06:04:40.680Z,76.54
2018-12-14T06:05:40.668Z,77.34
2018-12-14T06:06:40.663Z,77.17
2018-12-14T06:07:40.799Z,77.34
2018-12-14T06:08:40.632Z,76.54
2018-12-14T06:09:40.776Z,76.40
2018-12-14T06:10:40.613Z,77.13
2018-12-14T06:11:40.625Z,76.61
2018-12-14T06:12:40.619Z,76.61
2018-12-14T06:13:40.640Z,77.13
2018-12-14T06:14:40.573Z,77.66
2018-12-14T06:15:40.839Z,77.45
2018-12-14T06:16:40.553Z,77.45
2018-12-14T06:17:40.537Z,77.66
2018-12-14T06:18:40.534Z,77.66
2018-12-14T06:19:40.646Z,77.58
2018-12-14T06:20:40.570Z,77.55
2018-12-14T06:21:40.488Z,77.66
2018-12-14T06:22:40.491Z,77.48
2018-12-14T06:23:40.477Z,77.58
2018-12-14T06:24:40.590Z,77.58
2018-12-14T06:25:40.459Z,77.37
2018-12-14T06:26:40.441Z,77.69
2018-12-14T06:27:40.425Z,77.80
2018-12-14T06:28:40.417Z,77.69
2018-12-14T06:29:40.440Z,77.90
2018-12-14T06:30:40.503Z,77.69
2018-12-14T06:31:40.492Z,78.42
2018-12-14T06:32:40.375Z,77.90
2018-12-14T06:33:40.365Z,78.21
2018-12-14T06:34:40.354Z,77.80
2018-12-14T06:35:40.357Z,78.63
2018-12-14T06:36:40.328Z,78.52
2018-12-14T06:37:40.521Z,78.42
2018-12-14T06:38:40.320Z,78.21
2018-12-14T06:39:40.318Z,77.94
2018-12-14T06:40:40.345Z,78.31
2018-12-14T06:41:40.303Z,78.66
2018-12-14T06:42:40.299Z,78.94
2018-12-14T06:43:40.428Z,79.67
2018-12-14T06:44:40.246Z,79.46
2018-12-14T06:45:40.263Z,79.46
2018-12-14T06:46:40.227Z,77.90
2018-12-14T06:47:40.245Z,77.80
2018-12-14T06:48:40.216Z,77.90
2018-12-14T06:49:40.304Z,78.04
2018-12-14T06:50:40.181Z,77.94
2018-12-14T06:51:40.262Z,77.90
2018-12-14T06:52:40.234Z,78.25
2018-12-14T06:53:40.163Z,78.25
2018-12-14T06:54:40.316Z,77.72
2018-12-14T06:55:40.124Z,77.94
2018-12-14T06:56:40.132Z,78.35
2018-12-14T06:57:40.238Z,78.45
2018-12-14T06:58:40.122Z,78.25
2018-12-14T06:59:40.750Z,78.14
2018-12-14T07:00:40.074Z,78.25
2018-12-14T07:01:40.182Z,77.80
2018-12-14T07:02:40.150Z,78.31
2018-12-14T07:03:40.183Z,78.45
2018-12-14T07:04:40.029Z,77.83
2018-12-14T07:05:40.024Z,77.58
2018-12-14T07:06:40.004Z,77.58
2018-12-14T07:07:40.006Z,77.94
2018-12-14T07:08:39.992Z,77.41
2018-12-14T07:09:40.193Z,78.11
2018-12-14T07:10:39.971Z,77.94
2018-12-14T07:11:40.146Z,77.90
2018-12-14T07:12:40.810Z,77.72
2018-12-14T07:13:39.930Z,77.83
2018-12-14T07:14:39.932Z,76.37
2018-12-14T07:15:39.915Z,77.51
2018-12-14T07:16:40.300Z,77.83
2018-12-14T07:17:39.949Z,76.89
2018-12-14T07:18:39.923Z,76.86
2018-12-14T07:19:39.905Z,76.68
2018-12-14T07:20:39.896Z,76.68
2018-12-14T07:21:39.977Z,76.47
2018-12-14T07:22:39.845Z,76.54
2018-12-14T07:23:40.004Z,76.75
2018-12-14T07:24:39.826Z,76.47
2018-12-14T07:25:39.799Z,76.23
2018-12-14T07:26:40.123Z,76.16
2018-12-14T07:27:39.786Z,76.37
2018-12-14T07:28:39.785Z,76.16
2018-12-14T07:29:39.756Z,76.23
2018-12-14T07:30:39.754Z,76.37
2018-12-14T07:31:39.746Z,76.37
2018-12-14T07:32:39.939Z,76.26
2018-12-14T07:33:39.713Z,75.53
2018-12-14T07:34:39.711Z,76.12
2018-12-14T07:35:42.034Z,76.23
2018-12-14T07:36:39.695Z,76.33
2018-12-14T07:37:39.671Z,75.71
2018-12-14T07:38:39.772Z,75.29
2018-12-14T07:39:39.661Z,75.50
2018-12-14T07:40:39.652Z,74.18
2018-12-14T07:41:39.654Z,74.18
2018-12-14T07:42:39.636Z,75.12
2018-12-14T07:43:39.670Z,75.18
2018-12-14T07:44:40.062Z,75.53
2018-12-14T07:45:39.597Z,75.71
2018-12-14T07:46:39.720Z,75.12
2018-12-14T07:47:39.593Z,75.22
2018-12-14T07:48:39.554Z,75.53
2018-12-14T07:49:39.845Z,75.74
2018-12-14T07:50:39.559Z,75.85
2018-12-14T07:51:39.524Z,75.85
2018-12-14T07:52:39.593Z,75.74
2018-12-14T07:53:39.530Z,75.43
2018-12-14T07:54:39.494Z,75.12
2018-12-14T07:55:39.475Z,75.01
2018-12-14T07:56:39.526Z,75.12
2018-12-14T07:57:39.464Z,75.74
2018-12-14T07:58:39.579Z,75.85
2018-12-14T07:59:39.438Z,74.28
2018-12-14T08:00:39.473Z,75.12
2018-12-14T08:01:39.418Z,75.63
2018-12-14T08:02:39.434Z,75.92
2018-12-14T08:03:39.403Z,76.12
2018-12-14T08:04:39.455Z,75.53
2018-12-14T08:05:39.403Z,75.92
2018-12-14T08:06:39.366Z,74.35
2018-12-14T08:07:40.626Z,74.15
2018-12-14T08:08:39.339Z,74.42
2018-12-14T08:09:39.330Z,74.35
2018-12-14T08:10:39.449Z,74.01
2018-12-14T08:11:39.301Z,74.35
2018-12-14T08:12:39.303Z,74.15
2018-12-14T08:13:39.292Z,73.34
2018-12-14T08:14:39.466Z,74.18
2018-12-14T08:15:39.288Z,74.35
2018-12-14T08:16:39.422Z,74.18
2018-12-14T08:17:39.406Z,74.77
2018-12-14T08:18:39.244Z,74.77
2018-12-14T08:19:39.234Z,74.18
2018-12-14T08:20:39.228Z,74.28
2018-12-14T08:21:39.213Z,74.60
2018-12-14T08:22:39.285Z,74.80
2018-12-14T08:23:39.212Z,74.15
2018-12-14T08:24:39.167Z,73.93
2018-12-14T08:25:39.155Z,74.35
2018-12-14T08:26:39.161Z,74.35
2018-12-14T08:27:39.142Z,74.28
2018-12-14T08:28:39.252Z,74.46
2018-12-14T08:29:39.110Z,74.15
2018-12-14T08:30:39.118Z,74.35
2018-12-14T08:31:39.087Z,74.21
2018-12-14T08:32:39.148Z,74.42
2018-12-14T08:33:39.100Z,73.59
2018-12-14T08:34:39.233Z,73.49
2018-12-14T08:35:39.048Z,73.80
2018-12-14T08:36:39.046Z,73.38
2018-12-14T08:37:39.032Z,74.35
2018-12-14T08:38:39.028Z,74.35
2018-12-14T08:39:39.041Z,74.04
2018-12-14T08:40:39.095Z,73.93
2018-12-14T08:41:38.997Z,74.15
2018-12-14T08:42:39.061Z,74.07
2018-12-14T08:43:41.671Z,74.18
2018-12-14T08:44:38.970Z,74.15
2018-12-14T08:45:39.773Z,74.04
2018-12-14T08:46:39.024Z,74.04
2018-12-14T08:47:38.923Z,73.93
2018-12-14T08:48:39.016Z,74.46
2018-12-14T08:49:38.962Z,74.15
2018-12-14T08:50:38.989Z,73.69
2018-12-14T08:51:38.874Z,74.35
2018-12-14T08:52:38.865Z,74.11
2018-12-14T08:53:39.003Z,73.80
2018-12-14T08:54:38.852Z,73.69
2018-12-14T08:55:38.847Z,73.07
2018-12-14T08:56:38.845Z,72.96
2018-12-14T08:57:38.827Z,73.38
2018-12-14T08:58:38.807Z,73.17
2018-12-14T08:59:38.944Z,74.01
2018-12-14T09:00:38.780Z,75.15
2018-12-14T09:01:38.770Z,75.43
2018-12-14T09:02:38.754Z,74.84
2018-12-14T09:03:38.746Z,74.39
2018-12-14T09:04:38.876Z,73.14
2018-12-14T09:05:39.166Z,72.72
2018-12-14T09:06:38.763Z,72.62
2018-12-14T09:07:38.718Z,72.72
2018-12-14T09:08:38.710Z,72.51
2018-12-14T09:09:38.709Z,72.75
2018-12-14T09:10:38.703Z,72.83
2018-12-14T09:11:38.788Z,72.62
2018-12-14T09:12:38.791Z,72.62
2018-12-14T09:13:38.649Z,72.41
2018-12-14T09:14:38.629Z,72.30
2018-12-14T09:15:38.637Z,72.30
2018-12-14T09:16:38.618Z,72.09
2018-12-14T09:17:38.604Z,71.58
2018-12-14T09:18:38.821Z,71.89
2018-12-14T09:19:38.594Z,71.99
2018-12-14T09:20:38.753Z,72.09
2018-12-14T09:21:38.588Z,71.89
2018-12-14T09:22:38.538Z,71.68
2018-12-14T09:23:38.531Z,72.20
2018-12-14T09:24:38.527Z,71.58
2018-12-14T09:25:38.516Z,71.99
2018-12-14T09:26:38.942Z,72.09
2018-12-14T09:27:38.485Z,72.09
2018-12-14T09:28:38.482Z,72.20
2018-12-14T09:29:39.333Z,72.30
2018-12-14T09:30:42.617Z,72.20
2018-12-14T09:31:38.450Z,72.41
2018-12-14T09:32:38.554Z,71.99
2018-12-14T09:33:38.412Z,71.58
2018-12-14T09:34:38.975Z,71.68
2018-12-14T09:35:38.437Z,71.89
2018-12-14T09:36:38.387Z,71.58
2018-12-14T09:37:38.376Z,71.37
2018-12-14T09:38:38.546Z,71.75
2018-12-14T09:39:38.346Z,71.65
2018-12-14T09:40:38.343Z,71.23
2018-12-14T09:41:38.351Z,70.81
2018-12-14T09:42:38.333Z,71.54
2018-12-14T09:43:38.311Z,70.89
2018-12-14T09:44:38.470Z,70.68
2018-12-14T09:45:38.295Z,71.23
2018-12-14T09:46:38.296Z,70.68
2018-12-14T09:47:38.279Z,70.99
2018-12-14T09:48:38.277Z,70.36
2018-12-14T09:49:38.429Z,71.41
2018-12-14T09:50:38.730Z,69.84
2018-12-14T09:51:38.237Z,69.84
2018-12-14T09:52:38.269Z,70.47
2018-12-14T09:53:38.207Z,70.15
2018-12-14T09:54:38.303Z,70.26
2018-12-14T09:55:38.309Z,69.98
2018-12-14T09:56:38.254Z,70.09
2018-12-14T09:57:38.198Z,69.43
2018-12-14T09:58:38.164Z,69.74
2018-12-14T09:59:38.361Z,70.05
2018-12-14T10:00:40.843Z,70.36
2018-12-14T10:01:38.143Z,69.74
2018-12-14T10:02:38.250Z,69.40
2018-12-14T10:03:38.101Z,69.43
2018-12-14T10:04:38.091Z,69.22
2018-12-14T10:05:38.076Z,69.12
2018-12-14T10:06:38.089Z,68.91
2018-12-14T10:07:38.051Z,68.38
2018-12-14T10:08:38.203Z,68.18
2018-12-14T10:09:38.148Z,68.18
2018-12-14T10:10:38.094Z,68.49
2018-12-14T10:11:38.036Z,68.38
2018-12-14T10:12:38.082Z,68.38
2018-12-14T10:13:38.056Z,68.38
2018-12-14T10:14:38.136Z,67.97
2018-12-14T10:15:38.958Z,68.15
2018-12-14T10:16:37.971Z,67.73
2018-12-14T10:17:37.974Z,67.66
2018-12-14T10:18:38.084Z,67.55
2018-12-14T10:19:40.121Z,67.69
2018-12-14T10:20:38.070Z,67.79
2018-12-14T10:21:37.939Z,67.86
2018-12-14T10:22:41.475Z,68.07
2018-12-14T10:23:37.941Z,67.52
2018-12-14T10:24:37.915Z,67.73
2018-12-14T10:25:38.820Z,66.27
2018-12-14T10:26:38.926Z,67.21
2018-12-14T10:27:37.850Z,67.11
2018-12-14T10:28:37.876Z,67.00
2018-12-14T10:29:37.855Z,65.55
2018-12-14T10:30:37.811Z,65.31
2018-12-14T10:31:37.837Z,65.62
2018-12-14T10:32:38.199Z,65.83
2018-12-14T10:33:37.775Z,65.75
2018-12-14T10:34:37.776Z,65.31
2018-12-14T10:35:37.757Z,64.82
2018-12-14T10:36:38.702Z,65.34
2018-12-14T10:37:37.732Z,65.86
2018-12-14T10:38:37.979Z,65.10
2018-12-14T10:39:37.715Z,64.37
2018-12-14T10:40:38.547Z,64.17
2018-12-14T10:41:37.790Z,64.37
2018-12-14T10:42:37.679Z,64.17
2018-12-14T10:43:37.679Z,63.96
2018-12-14T10:44:37.669Z,63.72
2018-12-14T10:45:37.652Z,64.17
2018-12-14T10:46:37.658Z,63.64
2018-12-14T10:47:37.757Z,63.75
2018-12-14T10:48:37.625Z,62.60
2018-12-14T10:49:37.635Z,63.02
2018-12-14T10:50:39.701Z,61.67
2018-12-14T10:51:37.609Z,63.85
2018-12-14T10:52:37.591Z,62.71
2018-12-14T10:53:37.641Z,62.37
2018-12-14T10:54:37.557Z,61.98
2018-12-14T10:55:38.056Z,61.98
2018-12-14T10:56:37.523Z,61.85
2018-12-14T10:57:37.888Z,62.08
2018-12-14T10:58:37.521Z,61.22
2018-12-14T10:59:37.600Z,60.71
2018-12-14T11:00:37.526Z,60.39
2018-12-14T11:01:37.510Z,60.60
2018-12-14T11:02:37.464Z,60.81
2018-12-14T11:03:37.460Z,61.43
2018-12-14T11:04:37.459Z,60.83
2018-12-14T11:05:37.662Z,60.52
2018-12-14T11:06:37.417Z,60.00
2018-12-14T11:07:37.408Z,60.31
2018-12-14T11:08:37.401Z,61.25
2018-12-14T11:09:37.395Z,60.52
2018-12-14T11:10:37.391Z,61.15
2018-12-14T11:11:37.480Z,61.36
2018-12-14T11:12:37.348Z,60.63
2018-12-14T11:13:37.351Z,61.57
2018-12-14T11:14:37.342Z,61.67
2018-12-14T11:15:37.350Z,60.91
2018-12-14T11:16:37.322Z,60.91
2018-12-14T11:17:37.430Z,60.19
2018-12-14T11:18:37.499Z,60.73
2018-12-14T11:19:37.273Z,60.81
2018-12-14T11:20:37.402Z,60.31
2018-12-14T11:21:37.264Z,60.00
2018-12-14T11:22:37.249Z,59.14
2018-12-14T11:23:37.619Z,59.80
2018-12-14T11:24:37.229Z,58.62
2018-12-14T11:25:37.367Z,59.14
2018-12-14T11:26:37.203Z,59.77
2018-12-14T11:27:37.226Z,59.98
2018-12-14T11:28:37.827Z,60.60
2018-12-14T11:29:37.244Z,60.19
2018-12-14T11:30:37.151Z,60.88
2018-12-14T11:31:37.302Z,61.19
2018-12-14T11:32:37.129Z,61.90
2018-12-14T11:33:37.135Z,61.27
2018-12-14T11:34:37.246Z,58.98
2018-12-14T11:35:37.281Z,58.98
2018-12-14T11:36:37.127Z,59.74
2018-12-14T11:37:37.080Z,59.19
2018-12-14T11:38:37.084Z,58.60
2018-12-14T11:39:37.067Z,58.29
2018-12-14T11:40:37.076Z,58.50
2018-12-14T11:41:37.126Z,59.25
2018-12-14T11:42:37.030Z,59.04
2018-12-14T11:43:37.014Z,59.35
2018-12-14T11:44:37.026Z,59.14
2018-12-14T11:45:36.989Z,58.97
2018-12-14T11:46:36.968Z,59.25
2018-12-14T11:47:37.092Z,60.08
2018-12-14T11:48:36.951Z,59.84
2018-12-14T11:49:36.948Z,60.16
2018-12-14T11:50:36.985Z,59.95
2018-12-14T11:51:36.971Z,58.83
2018-12-14T11:52:37.011Z,59.56
2018-12-14T11:53:37.038Z,58.83
2018-12-14T11:54:36.915Z,59.22
2018-12-14T11:55:36.889Z,59.01
2018-12-14T11:56:36.906Z,59.53
2018-12-14T11:57:36.869Z,59.98
2018-12-14T11:58:37.271Z,60.08
2018-12-14T11:59:36.887Z,60.29
2018-12-14T12:00:36.831Z,60.08
2018-12-14T12:01:36.823Z,59.77
2018-12-14T12:02:42.907Z,59.98
2018-12-14T12:03:42.783Z,60.08
2018-12-14T12:04:36.786Z,60.08
2018-12-14T12:05:36.760Z,59.77
2018-12-14T12:06:36.760Z,60.19
2018-12-14T12:07:36.811Z,59.84
2018-12-14T12:08:36.748Z,59.35
2018-12-14T12:09:37.105Z,59.14
2018-12-14T12:10:36.738Z,59.35
2018-12-14T12:11:36.709Z,59.95
2018-12-14T12:12:36.732Z,59.56
2018-12-14T12:13:36.719Z,59.77
2018-12-14T12:14:36.675Z,59.95
2018-12-14T12:15:36.782Z,59.45
2018-12-14T12:16:36.859Z,59.77
2018-12-14T12:17:36.642Z,59.88
2018-12-14T12:18:36.638Z,59.88
2018-12-14T12:19:36.662Z,59.98
2018-12-14T12:20:39.405Z,61.33
2018-12-14T12:21:47.223Z,59.56
2018-12-14T12:22:36.581Z,58.73
2018-12-14T12:23:36.598Z,59.17
2018-12-14T12:24:36.628Z,59.07
2018-12-14T12:25:36.547Z,60.00
2018-12-14T12:26:36.551Z,59.17
2018-12-14T12:27:36.642Z,58.86
2018-12-14T12:28:36.517Z,59.80
2018-12-14T12:29:36.521Z,60.63
2018-12-14T12:30:36.497Z,60.14
2018-12-14T12:31:36.477Z,60.11
2018-12-14T12:32:36.470Z,60.83
2018-12-14T12:33:36.613Z,60.11
2018-12-14T12:34:36.445Z,60.11
2018-12-14T12:35:36.445Z,60.11
2018-12-14T12:36:36.434Z,61.04
2018-12-14T12:37:36.453Z,59.59
2018-12-14T12:38:38.311Z,58.86
2018-12-14T12:39:36.599Z,59.61
2018-12-14T12:40:36.395Z,60.45
2018-12-14T12:41:36.445Z,60.45
2018-12-14T12:42:36.359Z,60.45
2018-12-14T12:43:36.356Z,61.80
2018-12-14T12:44:36.334Z,61.07
2018-12-14T12:45:36.649Z,61.49
2018-12-14T12:46:36.315Z,60.94
2018-12-14T12:47:36.314Z,60.55
2018-12-14T12:48:36.290Z,60.94
2018-12-14T12:49:36.354Z,62.63
2018-12-14T12:50:36.268Z,62.63
2018-12-14T12:51:36.436Z,63.26
2018-12-14T12:52:36.250Z,63.98